Time;durP1;ratioP1;P1;durP2;ratioP2;P2;SDS_P1;SDS_P2;PMS_P1;PMS_P2;Temp;Humidity;BMP_temperature;BMP_pressure;BME280_temperature;BME280_humidity;BME280_pressure;Samples;Min_cycle;Max_cycle;Signal;HPM_P1;HPM_P2
2023/05/17 00:00:02;;;;;;;;;;;22.30;53.10;;;;;;1572420;75;741;-59
2023/05/17 00:02:04;;;;;;;;;;;22.40;53.00;;;;;;1575962;75;765;-56
2023/05/17 00:04:06;;;;;;;;;;;22.30;52.80;;;;;;1566662;75;771;-57
2023/05/17 00:06:08;;;;;;;;;;;22.30;52.80;;;;;;1578050;74;1417;-58
2023/05/17 00:08:10;;;;;;;;;;;22.30;52.70;;;;;;1577079;74;742;-58
2023/05/17 00:10:12;;;;;;;;;;;22.40;52.60;;;;;;1569112;75;682;-57
2023/05/17 00:12:14;;;;;;;;;;;22.30;52.80;;;;;;1574953;74;697;-58
2023/05/17 00:14:15;;;;;;;;;;;22.30;52.70;;;;;;1579889;75;768;-56
2023/05/17 00:16:17;;;;;;;;;;;22.40;52.60;;;;;;1575978;74;1939;-55
2023/05/17 00:18:19;;;;;;;;;;;22.40;52.50;;;;;;1570813;74;733;-58
2023/05/17 00:20:21;;;;;;;;;;;22.50;52.60;;;;;;1576630;74;1588;-58
2023/05/17 00:22:23;;;;;;;;;;;22.40;52.30;;;;;;1577064;75;765;-58
2023/05/17 00:24:26;;;;;;;;;;;22.40;52.20;;;;;;1576914;75;720;-58
2023/05/17 00:26:27;;;;;;;;;;;22.40;52.30;;;;;;1576862;74;1152;-57
2023/05/17 00:28:29;;;;;;;;;;;22.40;52.30;;;;;;1574208;75;773;-56
2023/05/17 00:30:31;;;;;;;;;;;22.30;52.30;;;;;;1565203;75;716;-58
2023/05/17 00:32:33;;;;;;;;;;;22.40;52.20;;;;;;1580376;75;679;-58
2023/05/17 00:34:35;;;;;;;;;;;22.40;52.20;;;;;;1580254;74;1501;-56
2023/05/17 00:36:37;;;;;;;;;;;22.40;52.20;;;;;;1559038;75;1928;-57
2023/05/17 00:38:39;;;;;;;;;;;22.40;52.20;;;;;;1568399;74;847;-57
2023/05/17 00:40:41;;;;;;;;;;;22.40;52.10;;;;;;1582906;74;1143;-58
2023/05/17 00:42:43;;;;;;;;;;;22.40;52.00;;;;;;1585219;74;723;-58
2023/05/17 00:44:45;;;;;;;;;;;22.40;52.10;;;;;;1587345;74;666;-58
2023/05/17 00:46:46;;;;;;;;;;;22.40;52.00;;;;;;1576079;74;1196;-58
2023/05/17 00:48:48;;;;;;;;;;;22.40;52.10;;;;;;1579514;74;1504;-57
2023/05/17 00:50:51;;;;;;;;;;;22.40;52.10;;;;;;1575427;74;798;-59
2023/05/17 00:52:52;;;;;;;;;;;22.40;52.00;;;;;;1575900;74;805;-57
2023/05/17 00:54:54;;;;;;;;;;;22.40;52.10;;;;;;1585822;74;734;-58
2023/05/17 00:56:58;;;;;;;;;;;22.40;52.20;;;;;;1585412;75;1953;-56
2023/05/17 00:59:00;;;;;;;;;;;22.30;52.30;;;;;;1584422;74;735;-59
2023/05/17 01:01:01;;;;;;;;;;;22.30;52.30;;;;;;1584507;74;731;-59
2023/05/17 01:03:03;;;;;;;;;;;22.30;52.20;;;;;;1584211;74;1439;-58
2023/05/17 01:05:06;;;;;;;;;;;22.30;52.30;;;;;;1583469;74;598;-59
2023/05/17 01:07:08;;;;;;;;;;;22.40;52.30;;;;;;1584903;74;1143;-57
2023/05/17 01:09:10;;;;;;;;;;;22.30;52.20;;;;;;1578381;74;807;-58
2023/05/17 01:11:14;;;;;;;;;;;22.30;52.10;;;;;;1576752;74;732;-57
2023/05/17 01:13:17;;;;;;;;;;;22.40;52.00;;;;;;1587836;74;768;-57
2023/05/17 01:15:19;;;;;;;;;;;22.30;51.90;;;;;;1572085;74;779;-58
2023/05/17 01:17:25;;;;;;;;;;;22.40;51.80;;;;;;1584777;74;1931;-58
2023/05/17 01:19:45;;;;;;;;;;;22.30;51.80;;;;;;1581449;74;569;-59
2023/05/17 01:21:52;;;;;;;;;;;22.40;51.60;;;;;;1581565;74;748;-57
2023/05/17 01:24:14;;;;;;;;;;;22.40;51.60;;;;;;1518073;74;1137;-58
2023/05/17 01:26:21;;;;;;;;;;;22.30;51.80;;;;;;1584941;74;2022;-59
2023/05/17 01:28:23;;;;;;;;;;;22.30;51.80;;;;;;1575277;74;791;-60
2023/05/17 01:30:25;;;;;;;;;;;22.30;51.60;;;;;;1580794;74;1448;-60
2023/05/17 01:32:27;;;;;;;;;;;22.40;51.50;;;;;;1587528;74;680;-61
2023/05/17 01:34:29;;;;;;;;;;;22.30;51.40;;;;;;1573923;74;692;-60
2023/05/17 01:36:30;;;;;;;;;;;22.30;51.30;;;;;;1579391;74;1145;-59
2023/05/17 01:38:32;;;;;;;;;;;22.30;51.40;;;;;;1587232;74;1934;-59
2023/05/17 01:40:35;;;;;;;;;;;22.30;51.40;;;;;;1587258;74;1111;-59
2023/05/17 01:42:41;;;;;;;;;;;22.40;51.30;;;;;;1586734;74;692;-60
2023/05/17 01:44:45;;;;;;;;;;;22.30;51.20;;;;;;1583750;74;1436;-60
2023/05/17 01:46:48;;;;;;;;;;;22.30;51.20;;;;;;1587399;74;1207;-57
2023/05/17 01:48:52;;;;;;;;;;;22.30;51.10;;;;;;1580816;74;715;-59
2023/05/17 01:50:54;;;;;;;;;;;22.30;51.10;;;;;;1582299;74;696;-56
2023/05/17 01:52:57;;;;;;;;;;;22.40;51.00;;;;;;1585413;73;631;-59
2023/05/17 01:55:10;;;;;;;;;;;22.30;51.20;;;;;;1585681;74;1721;-56
2023/05/17 01:57:12;;;;;;;;;;;22.30;51.20;;;;;;1575991;74;1945;-56
2023/05/17 01:59:15;;;;;;;;;;;22.20;51.20;;;;;;1587400;73;1541;-57
2023/05/17 02:01:17;;;;;;;;;;;22.20;51.00;;;;;;1577862;74;793;-56
2023/05/17 02:03:19;;;;;;;;;;;22.20;50.80;;;;;;1570538;74;672;-58
2023/05/17 02:05:21;;;;;;;;;;;22.10;50.80;;;;;;1583888;74;811;-57
2023/05/17 02:07:23;;;;;;;;;;;22.20;51.00;;;;;;1583724;74;1164;-59
2023/05/17 02:09:25;;;;;;;;;;;22.10;51.00;;;;;;1585318;74;681;-59
2023/05/17 02:11:27;;;;;;;;;;;22.10;51.10;;;;;;1578287;74;683;-57
2023/05/17 02:13:29;;;;;;;;;;;22.10;51.30;;;;;;1581883;74;1401;-57
2023/05/17 02:15:31;;;;;;;;;;;22.10;51.10;;;;;;1585718;74;794;-58
2023/05/17 02:17:33;;;;;;;;;;;22.10;51.10;;;;;;1567952;74;1953;-58
2023/05/17 02:19:35;;;;;;;;;;;22.10;51.10;;;;;;1574839;73;749;-59
2023/05/17 02:21:37;;;;;;;;;;;22.20;51.00;;;;;;1579297;74;703;-60
2023/05/17 02:23:38;;;;;;;;;;;22.20;51.00;;;;;;1583581;74;779;-59
2023/05/17 02:25:40;;;;;;;;;;;22.20;50.90;;;;;;1585087;74;814;-58
2023/05/17 02:27:42;;;;;;;;;;;22.20;50.70;;;;;;1573308;74;1615;-58
2023/05/17 02:29:44;;;;;;;;;;;22.20;50.70;;;;;;1581155;74;700;-58
2023/05/17 02:31:46;;;;;;;;;;;22.10;50.80;;;;;;1586097;74;802;-57
2023/05/17 02:33:48;;;;;;;;;;;22.10;51.00;;;;;;1586432;74;701;-57
2023/05/17 02:35:50;;;;;;;;;;;22.10;51.00;;;;;;1586722;74;695;-57
2023/05/17 02:37:52;;;;;;;;;;;22.10;51.10;;;;;;1577123;74;1941;-58
2023/05/17 02:39:54;;;;;;;;;;;22.10;51.20;;;;;;1581478;74;731;-57
2023/05/17 02:41:56;;;;;;;;;;;22.10;51.00;;;;;;1586051;74;1523;-58
2023/05/17 02:43:58;;;;;;;;;;;22.20;50.90;;;;;;1585526;74;705;-58
2023/05/17 02:45:59;;;;;;;;;;;22.10;51.20;;;;;;1585894;74;1195;-57
2023/05/17 02:48:01;;;;;;;;;;;22.20;51.20;;;;;;1581558;74;705;-56
2023/05/17 02:50:03;;;;;;;;;;;22.20;51.00;;;;;;1586098;74;740;-57
2023/05/17 02:52:06;;;;;;;;;;;22.10;51.00;;;;;;1579029;74;667;-57
2023/05/17 02:54:07;;;;;;;;;;;22.10;50.80;;;;;;1587172;74;722;-58
2023/05/17 02:56:09;;;;;;;;;;;22.10;50.70;;;;;;1578609;74;1420;-59
2023/05/17 02:58:11;;;;;;;;;;;22.20;50.50;;;;;;1586016;74;1953;-58
2023/05/17 03:00:13;;;;;;;;;;;22.20;50.50;;;;;;1580760;73;719;-57
2023/05/17 03:02:15;;;;;;;;;;;22.10;50.70;;;;;;1587658;74;723;-57
2023/05/17 03:04:19;;;;;;;;;;;22.10;50.60;;;;;;1587748;74;715;-57
2023/05/17 03:06:21;;;;;;;;;;;22.20;50.50;;;;;;1584334;74;1168;-59
2023/05/17 03:08:22;;;;;;;;;;;22.20;50.40;;;;;;1581270;74;702;-57
2023/05/17 03:10:24;;;;;;;;;;;22.10;50.40;;;;;;1586126;74;1589;-58
2023/05/17 03:12:26;;;;;;;;;;;22.20;50.40;;;;;;1587527;74;721;-59
2023/05/17 03:14:28;;;;;;;;;;;22.20;50.30;;;;;;1572290;74;707;-57
2023/05/17 03:16:30;;;;;;;;;;;22.20;50.20;;;;;;1581454;74;1144;-57
2023/05/17 03:18:32;;;;;;;;;;;22.20;50.20;;;;;;1582798;74;1933;-56
2023/05/17 03:20:34;;;;;;;;;;;22.20;50.40;;;;;;1586851;74;721;-58
2023/05/17 03:22:35;;;;;;;;;;;22.10;50.60;;;;;;1584507;74;786;-57
2023/05/17 03:24:37;;;;;;;;;;;22.10;50.80;;;;;;1582000;74;780;-59
2023/05/17 03:26:39;;;;;;;;;;;22.10;50.70;;;;;;1587457;74;1196;-57
2023/05/17 03:28:41;;;;;;;;;;;22.10;50.70;;;;;;1583215;74;682;-57
2023/05/17 03:30:43;;;;;;;;;;;22.10;50.60;;;;;;1587089;74;677;-57
2023/05/17 03:32:45;;;;;;;;;;;22.10;50.70;;;;;;1586637;74;709;-57
2023/05/17 03:34:47;;;;;;;;;;;22.10;51.00;;;;;;1587140;74;634;-59
2023/05/17 03:36:49;;;;;;;;;;;22.10;51.00;;;;;;1563481;74;1471;-58
2023/05/17 03:38:50;;;;;;;;;;;22.00;51.20;;;;;;1587022;74;1948;-58
2023/05/17 03:40:52;;;;;;;;;;;22.00;51.20;;;;;;1584978;74;755;-56
2023/05/17 03:42:54;;;;;;;;;;;21.90;51.30;;;;;;1581862;74;1104;-61
2023/05/17 03:44:56;;;;;;;;;;;22.00;51.40;;;;;;1589835;74;583;-57
2023/05/17 03:46:58;;;;;;;;;;;21.90;51.50;;;;;;1576915;74;1216;-57
2023/05/17 03:49:00;;;;;;;;;;;21.90;51.50;;;;;;1584233;74;760;-57
2023/05/17 03:51:02;;;;;;;;;;;22.00;51.30;;;;;;1572205;74;1461;-59
2023/05/17 03:53:04;;;;;;;;;;;22.00;51.10;;;;;;1581063;74;686;-58
2023/05/17 03:55:06;;;;;;;;;;;22.00;51.00;;;;;;1577611;74;764;-58
2023/05/17 03:57:08;;;;;;;;;;;22.00;51.10;;;;;;1576239;74;1142;-56
2023/05/17 03:59:10;;;;;;;;;;;22.00;51.30;;;;;;1573613;74;1951;-58
2023/05/17 04:01:11;;;;;;;;;;;22.00;51.30;;;;;;1584241;74;693;-57
2023/05/17 04:03:13;;;;;;;;;;;22.00;51.40;;;;;;1574811;74;916;-56
2023/05/17 04:05:15;;;;;;;;;;;22.00;51.60;;;;;;1575181;74;1508;-57
2023/05/17 04:07:17;;;;;;;;;;;22.00;51.20;;;;;;1582443;74;1174;-56
2023/05/17 04:09:19;;;;;;;;;;;22.00;51.20;;;;;;1582121;74;760;-56
2023/05/17 04:11:23;;;;;;;;;;;22.00;50.70;;;;;;1572193;74;795;-59
2023/05/17 04:13:25;;;;;;;;;;;22.10;50.90;;;;;;1576654;74;755;-58
2023/05/17 04:15:27;;;;;;;;;;;22.00;51.00;;;;;;1576733;74;680;-57
2023/05/17 04:17:28;;;;;;;;;;;22.00;50.80;;;;;;1573760;74;1144;-58
2023/05/17 04:19:30;;;;;;;;;;;22.00;51.00;;;;;;1571345;74;1959;-58
2023/05/17 04:21:32;;;;;;;;;;;22.00;50.90;;;;;;1578505;74;739;-59
2023/05/17 04:23:34;;;;;;;;;;;22.00;50.80;;;;;;1577206;74;693;-59
2023/05/17 04:25:36;;;;;;;;;;;22.10;51.10;;;;;;1578063;74;675;-58
2023/05/17 04:27:38;;;;;;;;;;;22.10;51.10;;;;;;1584140;74;1160;-57
2023/05/17 04:29:40;;;;;;;;;;;22.10;51.20;;;;;;1575125;74;662;-58
2023/05/17 04:31:42;;;;;;;;;;;22.00;51.30;;;;;;1589553;74;773;-57
2023/05/17 04:33:43;;;;;;;;;;;22.00;51.30;;;;;;1586889;74;1454;-59
2023/05/17 04:35:45;;;;;;;;;;;22.10;51.30;;;;;;1571178;74;725;-58
2023/05/17 04:37:47;;;;;;;;;;;22.10;51.30;;;;;;1581687;74;1246;-56
2023/05/17 04:39:51;;;;;;;;;;;22.10;51.30;;;;;;1570947;74;1950;-57
2023/05/17 04:41:53;;;;;;;;;;;22.10;51.30;;;;;;1583554;74;1593;-58
2023/05/17 04:43:55;;;;;;;;;;;22.00;51.40;;;;;;1564791;74;1041;-57
2023/05/17 04:45:57;;;;;;;;;;;22.10;51.70;;;;;;1554989;74;722;-57
2023/05/17 04:47:59;;;;;;;;;;;22.10;51.50;;;;;;1553354;74;1469;-57
2023/05/17 04:50:03;;;;;;;;;;;22.10;51.40;;;;;;1554042;74;739;-57
2023/05/17 04:52:05;;;;;;;;;;;22.20;51.50;;;;;;1573238;74;1931;-57
2023/05/17 04:54:07;;;;;;;;;;;22.10;51.60;;;;;;1559531;74;762;-58
2023/05/17 04:56:09;;;;;;;;;;;22.10;51.70;;;;;;1559821;75;1144;-57
2023/05/17 04:58:11;;;;;;;;;;;22.10;51.80;;;;;;1562262;74;1981;-58
2023/05/17 05:00:14;;;;;;;;;;;22.10;51.80;;;;;;1559236;74;690;-59
2023/05/17 05:02:16;;;;;;;;;;;22.10;51.80;;;;;;1560090;74;1421;-56
2023/05/17 05:04:18;;;;;;;;;;;22.10;51.90;;;;;;1564224;74;762;-58
2023/05/17 05:06:21;;;;;;;;;;;22.10;51.90;;;;;;1559529;75;1174;-58
2023/05/17 05:08:23;;;;;;;;;;;22.10;51.90;;;;;;1561280;74;727;-59
2023/05/17 05:10:27;;;;;;;;;;;22.10;51.90;;;;;;1555240;74;792;-58
2023/05/17 05:12:28;;;;;;;;;;;22.10;52.10;;;;;;1571004;74;987;-57
2023/05/17 05:14:30;;;;;;;;;;;22.00;51.80;;;;;;1558364;74;737;-58
2023/05/17 05:16:32;;;;;;;;;;;22.00;52.10;;;;;;1557587;74;1441;-59
2023/05/17 05:18:34;;;;;;;;;;;22.10;52.10;;;;;;1562296;74;1932;-56
2023/05/17 05:20:35;;;;;;;;;;;21.90;52.10;;;;;;1555807;74;747;-59
2023/05/17 05:22:37;;;;;;;;;;;22.00;52.20;;;;;;1559644;74;783;-56
2023/05/17 05:24:39;;;;;;;;;;;22.00;52.30;;;;;;1564367;75;1100;-59
2023/05/17 05:26:41;;;;;;;;;;;22.00;52.30;;;;;;1561504;75;1132;-59
2023/05/17 05:28:43;;;;;;;;;;;22.00;52.30;;;;;;1567277;74;756;-58
2023/05/17 05:30:45;;;;;;;;;;;21.90;52.20;;;;;;1567896;74;1483;-58
2023/05/17 05:32:48;;;;;;;;;;;22.00;52.00;;;;;;1577517;74;663;-59
2023/05/17 05:34:50;;;;;;;;;;;22.00;52.00;;;;;;1559613;74;721;-59
2023/05/17 05:36:52;;;;;;;;;;;22.00;52.00;;;;;;1564344;74;1121;-59
2023/05/17 05:38:54;;;;;;;;;;;21.90;52.00;;;;;;1560835;74;1930;-57
2023/05/17 05:40:56;;;;;;;;;;;22.00;52.00;;;;;;1569596;74;806;-55
2023/05/17 05:42:58;;;;;;;;;;;22.00;52.10;;;;;;1563650;74;713;-56
2023/05/17 05:44:59;;;;;;;;;;;22.00;52.10;;;;;;1575270;74;1407;-56
2023/05/17 05:47:01;;;;;;;;;;;22.00;52.20;;;;;;1560563;75;1196;-53
2023/05/17 05:49:03;;;;;;;;;;;21.90;52.40;;;;;;1560958;75;723;-53
2023/05/17 05:51:05;;;;;;;;;;;22.00;52.40;;;;;;1574069;75;791;-57
2023/05/17 05:53:07;;;;;;;;;;;22.00;52.30;;;;;;1577333;75;669;-56
2023/05/17 05:55:09;;;;;;;;;;;22.00;52.30;;;;;;1573978;75;713;-57
2023/05/17 05:57:11;;;;;;;;;;;22.00;51.90;;;;;;1574450;74;1081;-55
2023/05/17 05:59:13;;;;;;;;;;;22.00;51.90;;;;;;1572523;74;1926;-53
2023/05/17 06:01:15;;;;;;;;;;;22.00;51.80;;;;;;1563607;74;663;-52
2023/05/17 06:03:17;;;;;;;;;;;22.00;51.70;;;;;;1568154;75;687;-54
2023/05/17 06:05:19;;;;;;;;;;;22.00;51.70;;;;;;1572860;75;751;-55
2023/05/17 06:07:20;;;;;;;;;;;22.00;51.60;;;;;;1576426;75;1179;-55
2023/05/17 06:09:22;;;;;;;;;;;22.10;51.70;;;;;;1576044;75;682;-54
2023/05/17 06:11:25;;;;;;;;;;;22.00;51.50;;;;;;1566451;75;1469;-56
2023/05/17 06:13:27;;;;;;;;;;;22.10;51.60;;;;;;1571721;75;709;-55
2023/05/17 06:15:30;;;;;;;;;;;22.10;51.50;;;;;;1570743;75;717;-56
2023/05/17 06:17:32;;;;;;;;;;;22.10;51.40;;;;;;1572095;75;1108;-56
2023/05/17 06:19:34;;;;;;;;;;;22.10;51.40;;;;;;1571761;74;1944;-54
2023/05/17 06:21:36;;;;;;;;;;;22.10;51.30;;;;;;1576647;75;684;-56
2023/05/17 06:23:38;;;;;;;;;;;22.10;51.30;;;;;;1580078;75;700;-57
2023/05/17 06:25:39;;;;;;;;;;;22.10;51.40;;;;;;1573176;74;1421;-57
2023/05/17 06:27:42;;;;;;;;;;;22.10;51.50;;;;;;1574091;75;1145;-58
2023/05/17 06:29:44;;;;;;;;;;;22.00;51.40;;;;;;1573671;74;645;-59
2023/05/17 06:31:46;;;;;;;;;;;22.00;51.50;;;;;;1574675;75;697;-57
2023/05/17 06:33:48;;;;;;;;;;;22.00;51.60;;;;;;1575977;75;722;-57
2023/05/17 06:35:50;;;;;;;;;;;22.00;51.70;;;;;;1570487;75;678;-54
2023/05/17 06:37:52;;;;;;;;;;;22.00;51.70;;;;;;1569446;75;1122;-56
2023/05/17 06:39:53;;;;;;;;;;;22.00;51.70;;;;;;1575643;75;1945;-55
2023/05/17 06:41:55;;;;;;;;;;;21.90;51.80;;;;;;1549945;76;1242;-56
2023/05/17 06:43:57;;;;;;;;;;;22.00;51.80;;;;;;1575763;75;664;-56
2023/05/17 06:45:59;;;;;;;;;;;21.90;51.80;;;;;;1570119;74;1184;-56
2023/05/17 06:48:01;;;;;;;;;;;21.90;51.80;;;;;;1567564;75;657;-56
2023/05/17 06:50:03;;;;;;;;;;;21.90;51.80;;;;;;1552351;75;766;-55
2023/05/17 06:52:05;;;;;;;;;;;21.90;51.80;;;;;;1578894;75;654;-58
2023/05/17 06:54:07;;;;;;;;;;;22.00;51.80;;;;;;1569390;75;1383;-56
2023/05/17 06:56:08;;;;;;;;;;;22.00;51.70;;;;;;1564817;75;1137;-58
2023/05/17 06:58:10;;;;;;;;;;;22.10;51.70;;;;;;1571040;75;692;-57
2023/05/17 07:00:13;;;;;;;;;;;22.10;51.80;;;;;;1569593;74;1928;-57
2023/05/17 07:02:21;;;;;;;;;;;22.00;51.50;;;;;;1561213;75;710;-56
2023/05/17 07:04:25;;;;;;;;;;;22.10;51.60;;;;;;1539502;76;3199;-56
2023/05/17 07:06:27;;;;;;;;;;;22.10;51.50;;;;;;1549912;76;1188;-59
2023/05/17 07:08:29;;;;;;;;;;;22.20;51.40;;;;;;1547287;76;1483;-58
2023/05/17 07:10:31;;;;;;;;;;;22.20;51.30;;;;;;1542452;76;769;-55
2023/05/17 07:12:33;;;;;;;;;;;22.20;51.20;;;;;;1547890;76;717;-59
2023/05/17 07:14:35;;;;;;;;;;;22.20;51.00;;;;;;1533793;76;724;-57
2023/05/17 07:16:37;;;;;;;;;;;22.20;50.90;;;;;;1545724;76;1122;-58
2023/05/17 07:18:39;;;;;;;;;;;22.40;50.80;;;;;;1539694;76;786;-57
2023/05/17 07:20:40;;;;;;;;;;;22.30;50.70;;;;;;1537811;75;1894;-55
2023/05/17 07:22:42;;;;;;;;;;;22.40;50.60;;;;;;1544437;75;1615;-57
2023/05/17 07:24:46;;;;;;;;;;;22.40;50.50;;;;;;1546362;76;766;-59
2023/05/17 07:26:48;;;;;;;;;;;22.40;50.50;;;;;;1541639;76;1150;-58
2023/05/17 07:28:50;;;;;;;;;;;22.40;50.40;;;;;;1550932;76;784;-58
2023/05/17 07:30:52;;;;;;;;;;;22.40;50.30;;;;;;1539498;76;706;-59
2023/05/17 07:32:54;;;;;;;;;;;22.40;50.30;;;;;;1544109;76;785;-55
2023/05/17 07:34:56;;;;;;;;;;;22.50;50.40;;;;;;1550695;76;684;-56
2023/05/17 07:36:58;;;;;;;;;;;22.40;50.30;;;;;;1540698;76;1511;-55
2023/05/17 07:39:00;;;;;;;;;;;22.30;50.20;;;;;;1550917;76;1952;-57
2023/05/17 07:41:02;;;;;;;;;;;22.40;50.20;;;;;;1547116;76;719;-56
2023/05/17 07:43:04;;;;;;;;;;;22.40;50.10;;;;;;1550591;76;745;-58
2023/05/17 07:45:07;;;;;;;;;;;22.50;50.20;;;;;;1538619;75;967;-55
2023/05/17 07:47:09;;;;;;;;;;;22.50;50.20;;;;;;1551746;75;1225;-57
2023/05/17 07:49:11;;;;;;;;;;;22.40;50.00;;;;;;1557721;75;716;-56
2023/05/17 07:51:12;;;;;;;;;;;22.40;50.00;;;;;;1553266;75;1446;-55
2023/05/17 07:53:15;;;;;;;;;;;22.50;50.00;;;;;;1555422;75;723;-57
2023/05/17 07:55:16;;;;;;;;;;;22.50;50.10;;;;;;1556797;75;740;-58
2023/05/17 07:57:18;;;;;;;;;;;22.50;50.40;;;;;;1535919;75;1128;-58
2023/05/17 07:59:23;;;;;;;;;;;22.60;50.40;;;;;;1550698;75;1959;-57
2023/05/17 08:01:26;;;;;;;;;;;22.60;50.00;;;;;;1545947;75;618;-58
2023/05/17 08:03:28;;;;;;;;;;;22.60;48.30;;;;;;1547244;75;748;-57
2023/05/17 08:05:30;;;;;;;;;;;22.60;47.30;;;;;;1550712;75;1448;-56
2023/05/17 08:07:32;;;;;;;;;;;22.50;47.60;;;;;;1543271;75;1219;-58
2023/05/17 08:09:33;;;;;;;;;;;22.60;46.80;;;;;;1551056;75;851;-59
2023/05/17 08:11:36;;;;;;;;;;;22.70;46.30;;;;;;1543821;75;777;-60
2023/05/17 08:13:38;;;;;;;;;;;22.70;46.30;;;;;;1550812;75;724;-57
2023/05/17 08:15:40;;;;;;;;;;;22.70;46.50;;;;;;1553283;75;692;-57
2023/05/17 08:17:42;;;;;;;;;;;22.70;45.80;;;;;;1541697;75;1090;-59
2023/05/17 08:19:44;;;;;;;;;;;22.60;44.50;;;;;;1548306;75;1924;-57
2023/05/17 08:21:46;;;;;;;;;;;22.50;44.30;;;;;;1556809;75;649;-57
2023/05/17 08:23:48;;;;;;;;;;;22.50;45.10;;;;;;1556059;75;663;-58
2023/05/17 08:25:49;;;;;;;;;;;22.50;45.50;;;;;;1548910;75;702;-57
2023/05/17 08:27:51;;;;;;;;;;;22.60;44.50;;;;;;1547191;75;1102;-56
2023/05/17 08:29:56;;;;;;;;;;;22.60;43.50;;;;;;1541915;75;643;-58
2023/05/17 08:31:57;;;;;;;;;;;22.50;41.90;;;;;;1549381;75;1518;-58
2023/05/17 08:33:59;;;;;;;;;;;22.50;43.00;;;;;;1557215;75;1662;-56
2023/05/17 08:36:03;;;;;;;;;;;22.60;40.50;;;;;;1552253;75;1082;-59
2023/05/17 08:38:04;;;;;;;;;;;22.30;41.90;;;;;;1552405;75;1628;-56
2023/05/17 08:40:06;;;;;;;;;;;22.30;41.80;;;;;;1543696;75;1939;-59
2023/05/17 08:42:08;;;;;;;;;;;22.40;41.80;;;;;;1551271;75;749;-59
2023/05/17 08:44:10;;;;;;;;;;;22.40;41.80;;;;;;1542290;75;904;-58
2023/05/17 08:46:12;;;;;;;;;;;22.50;42.70;;;;;;1558688;75;1417;-59
2023/05/17 08:48:16;;;;;;;;;;;22.50;42.60;;;;;;1555558;75;774;-59
2023/05/17 08:50:18;;;;;;;;;;;22.60;42.70;;;;;;1554013;75;738;-57
2023/05/17 08:52:20;;;;;;;;;;;22.60;42.30;;;;;;1553518;75;698;-56
2023/05/17 09:03:43;;;;;;;;;;;22.40;42.90;;;;;;1596441;72;653;-57
2023/05/17 09:05:45;;;;;;;;;;;22.30;43.10;;;;;;1575715;74;622;-57
2023/05/17 09:07:47;;;;;;;;;;;22.50;44.40;;;;;;1558812;74;1216;-61
2023/05/17 09:09:53;;;;;;;;;;;22.50;44.30;;;;;;1550042;75;918;-58
2023/05/17 09:11:55;;;;;;;;;;;22.50;44.50;;;;;;1558951;75;737;-59
2023/05/17 09:14:00;;;;;;;;;;;22.60;44.00;;;;;;1551127;76;730;-60
2023/05/17 09:16:02;;;;;;;;;;;22.50;44.30;;;;;;1549671;75;1253;-59
2023/05/17 09:18:04;;;;;;;;;;;22.50;43.60;;;;;;1551022;75;707;-58
2023/05/17 09:20:07;;;;;;;;;;;22.50;42.70;;;;;;1541710;75;737;-58
2023/05/17 09:22:09;;;;;;;;;;;22.50;41.40;;;;;;1532883;76;1909;-58
2023/05/17 09:24:10;;;;;;;;;;;22.50;40.60;;;;;;1549480;75;718;-58
2023/05/17 09:26:12;;;;;;;;;;;22.50;39.90;;;;;;1551421;75;1144;-58
2023/05/17 09:28:15;;;;;;;;;;;22.50;36.90;;;;;;1556529;76;712;-57
2023/05/17 09:30:17;;;;;;;;;;;22.40;38.40;;;;;;1544722;75;779;-58
2023/05/17 09:32:19;;;;;;;;;;;22.20;38.60;;;;;;1543544;75;718;-59
2023/05/17 09:34:22;;;;;;;;;;;22.20;38.70;;;;;;1557613;75;739;-58
2023/05/17 09:36:24;;;;;;;;;;;22.20;38.90;;;;;;1533648;76;1259;-60
2023/05/17 09:38:26;;;;;;;;;;;22.20;39.00;;;;;;1558057;75;737;-59
2023/05/17 09:40:28;;;;;;;;;;;22.10;38.70;;;;;;1557206;76;757;-58
2023/05/17 09:42:31;;;;;;;;;;;22.10;38.70;;;;;;1555933;75;1927;-59
2023/05/17 09:44:35;;;;;;;;;;;22.20;38.90;;;;;;1555247;75;764;-58
2023/05/17 09:46:41;;;;;;;;;;;22.20;38.90;;;;;;1551646;75;1810;-59
2023/05/17 09:48:45;;;;;;;;;;;22.20;38.50;;;;;;1563826;75;1715;-59
2023/05/17 09:50:50;;;;;;;;;;;22.10;38.30;;;;;;1556398;75;1415;-59
2023/05/17 09:52:52;;;;;;;;;;;22.10;38.80;;;;;;1561590;75;769;-58
2023/05/17 09:54:54;;;;;;;;;;;22.10;39.20;;;;;;1550049;75;825;-58
2023/05/17 09:56:58;;;;;;;;;;;22.10;39.50;;;;;;1545564;76;1232;-58
2023/05/17 09:59:01;;;;;;;;;;;22.20;39.60;;;;;;1536680;76;786;-59
2023/05/17 10:01:04;;;;;;;;;;;22.10;39.50;;;;;;1547919;75;1594;-59
2023/05/17 10:03:06;;;;;;;;;;;22.10;39.90;;;;;;1535491;76;1907;-60
2023/05/17 10:05:10;;;;;;;;;;;22.10;40.10;;;;;;1533691;76;767;-58
2023/05/17 10:07:12;;;;;;;;;;;22.10;40.20;;;;;;1541448;76;1210;-58
2023/05/17 10:09:14;;;;;;;;;;;22.10;40.30;;;;;;1537429;76;816;-59
2023/05/17 10:11:17;;;;;;;;;;;22.10;40.20;;;;;;1535229;76;737;-59
2023/05/17 10:13:23;;;;;;;;;;;22.20;40.20;;;;;;1537588;76;667;-58
2023/05/17 10:15:24;;;;;;;;;;;22.10;39.70;;;;;;1528415;76;1605;-58
2023/05/17 10:17:28;;;;;;;;;;;22.00;39.00;;;;;;1542626;76;1122;-58
2023/05/17 10:19:30;;;;;;;;;;;22.10;39.60;;;;;;1544309;76;731;-59
2023/05/17 10:21:32;;;;;;;;;;;22.00;39.50;;;;;;1532464;76;770;-59
2023/05/17 10:23:34;;;;;;;;;;;22.00;39.50;;;;;;1531405;76;1932;-59
2023/05/17 10:25:36;;;;;;;;;;;22.00;39.10;;;;;;1538751;76;752;-59
2023/05/17 10:27:38;;;;;;;;;;;22.00;38.80;;;;;;1537163;76;1099;-60
2023/05/17 10:29:40;;;;;;;;;;;21.90;38.70;;;;;;1529611;75;726;-59
2023/05/17 10:31:42;;;;;;;;;;;21.90;38.60;;;;;;1531742;76;750;-59
2023/05/17 10:33:45;;;;;;;;;;;21.90;38.90;;;;;;1532900;76;724;-59
2023/05/17 10:35:47;;;;;;;;;;;21.90;38.60;;;;;;1531404;76;733;-59
2023/05/17 10:37:48;;;;;;;;;;;21.90;38.30;;;;;;1535738;76;1125;-59
2023/05/17 10:39:51;;;;;;;;;;;21.90;38.40;;;;;;1534943;76;754;-59
2023/05/17 10:41:54;;;;;;;;;;;21.90;38.60;;;;;;1542356;76;583;-59
2023/05/17 10:43:56;;;;;;;;;;;21.90;38.20;;;;;;1536826;76;1932;-59
2023/05/17 10:45:59;;;;;;;;;;;21.90;38.70;;;;;;1534030;76;794;-60
2023/05/17 10:48:04;;;;;;;;;;;21.90;38.50;;;;;;1537498;75;801;-60
2023/05/17 10:50:07;;;;;;;;;;;21.80;37.60;;;;;;1528086;76;630;-60
2023/05/17 10:52:16;;;;;;;;;;;21.80;38.00;;;;;;1540416;76;708;-58
2023/05/17 10:54:18;;;;;;;;;;;21.80;38.00;;;;;;1536212;76;736;-59
2023/05/17 10:56:20;;;;;;;;;;;21.80;38.00;;;;;;1535985;76;1143;-58
2023/05/17 10:58:23;;;;;;;;;;;21.80;36.90;;;;;;1531906;76;1667;-60
2023/05/17 11:00:28;;;;;;;;;;;21.80;37.20;;;;;;1516226;77;1243;-59
2023/05/17 11:02:28;;;;;;;;;;;21.70;37.60;;;;;;1548319;76;1937;-60
2023/05/17 11:04:35;;;;;;;;;;;21.70;37.70;;;;;;1537363;75;1067;-59
2023/05/17 11:06:37;;;;;;;;;;;21.70;37.60;;;;;;1535162;75;1205;-60
2023/05/17 11:08:48;;;;;;;;;;;21.70;38.10;;;;;;1518307;77;1183;-59
2023/05/17 11:11:10;;;;;;;;;;;21.70;38.20;;;;;;1539292;76;601;-59
2023/05/17 11:13:16;;;;;;;;;;;21.80;38.30;;;;;;1531206;76;806;-58
2023/05/17 11:15:18;;;;;;;;;;;21.80;38.10;;;;;;1534405;76;1134;-57
2023/05/17 11:17:22;;;;;;;;;;;21.80;38.30;;;;;;1524660;76;1209;-58
2023/05/17 11:19:23;;;;;;;;;;;21.80;38.50;;;;;;1523361;75;1807;-57
2023/05/17 11:21:25;;;;;;;;;;;21.80;38.40;;;;;;1538865;76;703;-58
2023/05/17 11:23:30;;;;;;;;;;;21.80;38.70;;;;;;1511946;77;1937;-58
2023/05/17 11:25:37;;;;;;;;;;;21.70;38.30;;;;;;1535110;75;1623;-58
2023/05/17 11:27:41;;;;;;;;;;;21.70;38.50;;;;;;1532206;75;1140;-59
2023/05/17 11:29:43;;;;;;;;;;;21.80;38.50;;;;;;1531515;75;1062;-59
2023/05/17 11:31:45;;;;;;;;;;;21.70;38.50;;;;;;1530145;77;953;-59
2023/05/17 11:33:47;;;;;;;;;;;21.80;38.40;;;;;;1538786;75;734;-58
2023/05/17 11:35:50;;;;;;;;;;;21.80;38.20;;;;;;1535634;76;735;-60
2023/05/17 11:37:56;;;;;;;;;;;21.80;38.10;;;;;;1523355;77;1164;-59
2023/05/17 11:40:03;;;;;;;;;;;21.80;38.00;;;;;;1530848;76;2006;-57
2023/05/17 11:42:05;;;;;;;;;;;21.70;37.70;;;;;;1537092;75;1673;-58
2023/05/17 11:44:12;;;;;;;;;;;21.80;38.30;;;;;;1537824;76;1944;-58
2023/05/17 11:46:11;;;;;;;;;;;21.90;38.40;;;;;;1534179;75;1542;-58
2023/05/17 11:48:13;;;;;;;;;;;21.90;38.50;;;;;;1526741;77;1145;-57
2023/05/17 11:50:15;;;;;;;;;;;22.00;38.50;;;;;;1532034;75;802;-57
2023/05/17 11:52:17;;;;;;;;;;;22.00;38.40;;;;;;1537793;76;719;-57
2023/05/17 11:54:20;;;;;;;;;;;21.90;38.60;;;;;;1531169;75;1488;-57
2023/05/17 11:56:26;;;;;;;;;;;22.00;38.70;;;;;;1538822;76;1155;-59
2023/05/17 11:58:28;;;;;;;;;;;22.00;38.80;;;;;;1532292;75;803;-57
2023/05/17 12:00:30;;;;;;;;;;;22.00;38.90;;;;;;1539214;75;689;-58
2023/05/17 12:02:32;;;;;;;;;;;22.00;39.00;;;;;;1544774;75;683;-57
2023/05/17 12:04:37;;;;;;;;;;;22.00;39.20;;;;;;1548451;76;1913;-58
2023/05/17 12:06:39;;;;;;;;;;;22.10;39.30;;;;;;1540699;76;1401;-58
2023/05/17 12:08:45;;;;;;;;;;;22.00;39.20;;;;;;1544914;75;1440;-58
2023/05/17 12:10:48;;;;;;;;;;;22.00;39.30;;;;;;1547563;76;774;-58
2023/05/17 12:12:49;;;;;;;;;;;22.10;39.40;;;;;;1539248;75;1087;-57
2023/05/17 12:14:51;;;;;;;;;;;22.10;39.50;;;;;;1541712;75;696;-58
2023/05/17 12:16:59;;;;;;;;;;;22.10;39.70;;;;;;1539061;76;1136;-58
2023/05/17 12:18:58;;;;;;;;;;;22.10;39.70;;;;;;1519047;76;1362;-57